createdAt,value
2018-11-05T00:01:14.221Z,85.55
2018-11-05T00:04:09.751Z,85.00
2018-11-05T00:07:06.073Z,105.00
2018-11-05T00:10:00.336Z,106.83
2018-11-05T00:12:54.523Z,76.97
2018-11-05T00:15:48.208Z,86.90
2018-11-05T00:18:42.264Z,73.83
2018-11-05T00:21:36.791Z,72.72
2018-11-05T00:24:30.767Z,81.97
2018-11-05T00:27:24.462Z,65.72
2018-11-05T00:30:18.512Z,93.58
2018-11-05T00:33:12.289Z,110.60
2018-11-05T00:36:06.263Z,86.42
2018-11-05T00:39:01.267Z,122.37
2018-11-05T00:41:59.149Z,100.17
2018-11-05T00:44:56.201Z,116.93
2018-11-05T00:47:50.216Z,87.35
2018-11-05T00:50:46.398Z,124.35
2018-11-05T00:53:42.942Z,147.72
2018-11-05T00:56:37.133Z,94.70
2018-11-05T00:59:31.009Z,117.87
2018-11-05T01:02:25.594Z,146.22
2018-11-05T01:05:20.348Z,132.72
2018-11-05T01:08:14.267Z,130.07
2018-11-05T01:11:08.484Z,134.97
2018-11-05T01:14:04.076Z,128.83
2018-11-05T01:16:58.261Z,121.57
2018-11-05T01:19:56.229Z,110.52
2018-11-05T01:22:50.518Z,114.72
2018-11-05T01:25:46.844Z,118.47
2018-11-05T01:28:41.244Z,127.57
2018-11-05T01:31:35.121Z,193.33
2018-11-05T01:34:29.511Z,162.20
2018-11-05T01:37:24.704Z,145.17
2018-11-05T01:40:18.898Z,143.93
2018-11-05T01:43:15.742Z,170.67
2018-11-05T01:46:10.027Z,145.62
2018-11-05T01:49:04.207Z,172.67
2018-11-05T01:52:01.362Z,161.80
2018-11-05T01:54:55.033Z,121.55
2018-11-05T01:57:48.911Z,124.57
2018-11-05T02:00:42.784Z,139.25
2018-11-05T02:03:36.968Z,115.33
2018-11-05T02:06:33.927Z,111.80
2018-11-05T02:09:27.792Z,99.72
2018-11-05T02:12:21.668Z,102.17
2018-11-05T02:15:15.748Z,97.97
2018-11-05T02:18:10.528Z,96.37
2018-11-05T02:21:07.298Z,93.33
2018-11-05T02:24:01.304Z,115.60
2018-11-05T02:26:56.072Z,94.65
2018-11-05T02:29:50.349Z,109.83
2018-11-05T02:32:44.027Z,95.03
2018-11-05T02:35:38.213Z,99.20
2018-11-05T02:38:36.372Z,93.75
2018-11-05T02:41:26.739Z,105.00
2018-11-05T02:44:22.100Z,113.05
2018-11-05T02:47:16.271Z,119.00
2018-11-05T02:50:11.273Z,157.33
2018-11-05T02:53:05.563Z,98.67
2018-11-05T02:55:59.950Z,100.47
2018-11-05T02:58:53.606Z,125.07
2018-11-05T03:01:47.898Z,118.17
2018-11-05T03:04:46.706Z,105.12
2018-11-05T03:07:40.577Z,108.70
2018-11-05T03:10:35.275Z,104.72
2018-11-05T03:13:28.945Z,115.83
2018-11-05T03:16:23.051Z,106.63
2018-11-05T03:19:17.186Z,134.35
2018-11-05T03:22:11.410Z,112.35
2018-11-05T03:25:05.680Z,130.52
2018-11-05T03:28:00.749Z,157.78
2018-11-05T03:30:55.179Z,142.37
2018-11-05T03:33:50.206Z,137.30
2018-11-05T03:36:44.358Z,115.33
2018-11-05T03:39:38.762Z,124.97
2018-11-05T03:42:33.957Z,114.50
2018-11-05T03:45:27.880Z,120.03
2018-11-05T03:48:22.172Z,145.10
2018-11-05T03:51:16.293Z,128.72
2018-11-05T03:54:10.963Z,118.15
2018-11-05T03:57:08.142Z,128.93
2018-11-05T04:00:02.450Z,136.62
2018-11-05T04:02:56.531Z,135.07
2018-11-05T04:05:50.410Z,125.93
2018-11-05T04:08:43.860Z,137.43
2018-11-05T04:11:38.064Z,127.17
2018-11-05T04:14:32.115Z,122.37
2018-11-05T04:17:26.221Z,117.13
2018-11-05T04:20:20.500Z,102.22
2018-11-05T04:23:17.534Z,109.67
2018-11-05T04:26:27.502Z,113.03
2018-11-05T04:29:18.591Z,113.90
2018-11-05T04:32:16.179Z,107.77
2018-11-05T04:35:10.276Z,109.60
2018-11-05T04:38:04.120Z,106.80
2018-11-05T04:41:02.607Z,117.05
2018-11-05T04:43:54.638Z,113.92
2018-11-05T04:46:48.834Z,115.12
2018-11-05T04:49:48.663Z,110.37
2018-11-05T04:52:50.003Z,105.77
2018-11-05T04:56:10.115Z,105.92
2018-11-05T04:59:40.734Z,101.97
2018-11-05T05:02:29.576Z,179.07
2018-11-05T05:05:28.681Z,151.50
2018-11-05T05:08:33.407Z,124.80
2018-11-05T05:11:37.016Z,109.97
2018-11-05T05:14:40.483Z,104.12
2018-11-05T05:18:14.267Z,78.30
2018-11-05T05:21:05.339Z,72.67
2018-11-05T05:24:02.337Z,87.93
2018-11-05T05:26:57.762Z,72.30
2018-11-05T05:30:00.840Z,72.37
2018-11-05T05:32:52.684Z,59.65
2018-11-05T05:35:47.454Z,54.50
2018-11-05T05:38:47.238Z,47.33
2018-11-05T05:42:10.940Z,48.42
2018-11-05T05:45:18.184Z,48.15
2018-11-05T05:48:33.934Z,48.52
2018-11-05T05:51:43.690Z,45.98
2018-11-05T05:54:43.178Z,42.65
2018-11-05T05:57:58.540Z,38.10
2018-11-05T06:01:00.690Z,43.37
2018-11-05T06:04:30.388Z,46.42
2018-11-05T06:07:31.667Z,46.48
2018-11-05T06:10:35.705Z,47.37
2018-11-05T06:13:40.607Z,45.75
2018-11-05T06:16:45.047Z,45.10
2018-11-05T06:19:46.835Z,43.68
2018-11-05T06:22:49.092Z,42.53
2018-11-05T06:25:51.764Z,37.95
2018-11-05T06:28:51.456Z,43.13
2018-11-05T06:31:53.879Z,41.30
2018-11-05T06:34:55.038Z,39.57
2018-11-05T06:37:52.195Z,41.15
2018-11-05T06:40:53.395Z,52.15
2018-11-05T06:43:49.875Z,54.10
2018-11-05T06:46:47.615Z,41.33
2018-11-05T06:49:55.436Z,54.70
2018-11-05T06:52:53.391Z,42.40
2018-11-05T06:55:51.547Z,45.58
2018-11-05T06:58:50.008Z,41.77
2018-11-05T07:01:54.037Z,42.55
2018-11-05T07:04:55.666Z,49.85
2018-11-05T07:11:19.667Z,41.10
2018-11-05T07:14:17.376Z,42.73
2018-11-05T07:17:43.725Z,46.08
2018-11-05T07:20:53.291Z,44.90
2018-11-05T07:23:54.582Z,42.33
2018-11-05T07:26:54.538Z,45.20
2018-11-05T07:29:56.947Z,51.70
2018-11-05T07:32:58.544Z,39.55
2018-11-05T07:35:59.640Z,39.55
2018-11-05T07:39:16.529Z,39.53
2018-11-05T07:42:21.884Z,46.60
2018-11-05T07:45:25.670Z,44.40
2018-11-05T07:48:28.634Z,42.65
2018-11-05T07:51:56.537Z,39.15
2018-11-05T07:55:00.160Z,45.00
2018-11-05T07:58:05.468Z,39.55
2018-11-05T08:01:03.208Z,42.75
2018-11-05T08:04:06.520Z,46.80
2018-11-05T08:07:08.729Z,42.93
2018-11-05T08:10:06.431Z,45.38
2018-11-05T08:13:04.742Z,46.83
2018-11-05T08:16:12.474Z,44.70
2018-11-05T08:19:07.880Z,49.93
2018-11-05T08:22:09.933Z,44.35
2018-11-05T08:25:11.721Z,48.05
2018-11-05T08:28:13.717Z,44.67
2018-11-05T08:31:16.101Z,43.45
2018-11-05T08:34:17.195Z,47.35
2018-11-05T08:37:25.889Z,47.48
2018-11-05T08:40:32.775Z,45.67
2018-11-05T08:43:32.107Z,44.73
2018-11-05T08:46:36.379Z,46.77
2018-11-05T08:49:36.299Z,53.35
2018-11-05T08:52:36.817Z,46.25
2018-11-05T08:55:39.190Z,46.98
2018-11-05T08:58:38.236Z,43.68
2018-11-05T09:01:39.103Z,45.73
2018-11-05T09:04:42.239Z,47.17
2018-11-05T09:07:46.130Z,46.13
2018-11-05T09:10:41.921Z,47.63
2018-11-05T09:13:41.501Z,48.17
2018-11-05T09:16:40.952Z,43.63
2018-11-05T09:19:43.791Z,47.23
2018-11-05T09:22:46.027Z,46.28
2018-11-05T09:25:47.148Z,48.00
2018-11-05T09:28:52.205Z,51.20
2018-11-05T09:31:50.711Z,51.77
2018-11-05T09:34:53.753Z,48.87
2018-11-05T09:37:53.878Z,47.85
2018-11-05T09:41:02.652Z,48.98
2018-11-05T09:44:04.878Z,43.25
2018-11-05T09:47:09.144Z,50.85
2018-11-05T09:50:06.180Z,45.60
2018-11-05T09:53:04.786Z,41.70
2018-11-05T09:56:02.883Z,43.95
2018-11-05T09:59:01.808Z,43.10
2018-11-05T10:02:04.863Z,47.48
2018-11-05T10:05:01.366Z,47.55
2018-11-05T10:08:04.213Z,49.05
2018-11-05T10:10:57.296Z,50.40
2018-11-05T10:13:52.648Z,44.38
2018-11-05T10:16:49.730Z,44.38
2018-11-05T10:19:46.647Z,49.45
2018-11-05T10:22:57.702Z,43.83
2018-11-05T10:25:53.857Z,49.83
2018-11-05T10:28:51.062Z,48.80
2018-11-05T10:31:51.316Z,46.80
2018-11-05T10:34:48.350Z,45.92
2018-11-05T10:37:38.716Z,46.18
2018-11-05T10:40:38.030Z,51.18
2018-11-05T10:43:31.258Z,40.98
2018-11-05T10:46:24.645Z,44.20
2018-11-05T10:49:18.682Z,46.00
2018-11-05T10:52:13.641Z,49.95
2018-11-05T10:55:07.231Z,49.35
2018-11-05T10:58:02.405Z,44.13
2018-11-05T11:01:12.458Z,42.45
2018-11-05T11:10:34.872Z,44.80
2018-11-05T11:13:28.737Z,43.10
2018-11-05T11:16:32.698Z,49.60
2018-11-05T11:19:26.460Z,54.08
2018-11-05T11:22:22.289Z,45.67
2018-11-05T11:25:15.737Z,43.60
2018-11-05T11:28:09.584Z,41.65
2018-11-05T11:31:06.362Z,47.43
2018-11-05T11:34:00.417Z,48.85
2018-11-05T11:36:54.053Z,42.33
2018-11-05T11:39:47.551Z,48.38
2018-11-05T11:42:44.975Z,46.75
2018-11-05T11:45:38.918Z,43.93
2018-11-05T11:48:32.455Z,48.08
2018-11-05T11:51:26.169Z,42.43
2018-11-05T11:54:22.345Z,44.03
2018-11-05T11:57:19.377Z,42.27
2018-11-05T12:00:17.920Z,49.60
2018-11-05T12:03:13.735Z,46.37
2018-11-05T12:06:14.295Z,44.75
2018-11-05T12:09:13.914Z,45.15
2018-11-05T12:12:11.467Z,43.42
2018-11-05T12:15:08.853Z,44.35
2018-11-05T12:18:05.544Z,42.40
2018-11-05T12:21:01.994Z,54.27
2018-11-05T12:23:57.262Z,45.12
2018-11-05T12:26:59.325Z,43.02
2018-11-05T12:29:55.879Z,45.83
2018-11-05T12:32:52.557Z,51.00
2018-11-05T12:35:49.242Z,62.65
2018-11-05T12:38:44.199Z,50.88
2018-11-05T12:41:49.429Z,61.00
2018-11-05T12:44:46.545Z,50.70
2018-11-05T12:47:42.385Z,50.85
2018-11-05T12:50:39.144Z,55.80
2018-11-05T12:53:37.794Z,55.38
2018-11-05T12:56:33.460Z,51.88
2018-11-05T12:59:28.847Z,48.40
2018-11-05T13:02:27.985Z,52.80
2018-11-05T13:05:22.515Z,56.85
2018-11-05T13:08:22.687Z,50.17
2018-11-05T13:11:18.001Z,61.37
2018-11-05T13:14:14.058Z,62.53
2018-11-05T13:17:10.682Z,48.95
2018-11-05T13:20:06.261Z,46.20
2018-11-05T13:23:02.014Z,50.70
2018-11-05T13:25:58.632Z,46.97
2018-11-05T13:28:56.044Z,45.30
2018-11-05T13:31:52.193Z,62.40
2018-11-05T13:34:52.922Z,47.17
2018-11-05T13:37:46.036Z,49.37
2018-11-05T13:40:41.786Z,57.90
2018-11-05T13:43:36.858Z,53.55
2018-11-05T13:46:32.863Z,46.25
2018-11-05T13:49:28.341Z,50.37
2018-11-05T13:52:23.381Z,65.15
2018-11-05T13:55:19.534Z,56.35
2018-11-05T13:58:15.007Z,55.33
2018-11-05T14:01:10.491Z,57.48
2018-11-05T14:04:08.479Z,49.80
2018-11-05T14:07:04.031Z,57.53
2018-11-05T14:09:58.800Z,58.38
2018-11-05T14:12:53.736Z,55.48
2018-11-05T14:15:48.516Z,52.37
2018-11-05T14:18:43.813Z,75.22
2018-11-05T14:21:39.407Z,49.53
2018-11-05T14:24:35.376Z,90.83
2018-11-05T14:27:30.922Z,58.92
2018-11-05T14:30:26.518Z,56.67
2018-11-05T14:33:22.296Z,55.73
2018-11-05T14:36:17.921Z,57.67
2018-11-05T14:39:18.509Z,55.98
2018-11-05T14:42:13.756Z,49.83
2018-11-05T14:45:09.266Z,61.20
2018-11-05T14:48:04.805Z,75.87
2018-11-05T14:51:00.148Z,75.60
2018-11-05T14:53:54.519Z,60.83
2018-11-05T14:56:50.038Z,67.77
2018-11-05T14:59:45.615Z,62.00
2018-11-05T15:02:41.641Z,56.18
2018-11-05T15:05:36.681Z,66.75
2018-11-05T15:08:31.818Z,52.23
2018-11-05T15:11:28.229Z,71.60
2018-11-05T15:14:24.195Z,64.83
2018-11-05T15:17:20.486Z,59.05
2018-11-05T15:20:17.598Z,62.80
2018-11-05T15:23:13.117Z,57.90
2018-11-05T15:26:08.734Z,56.53
2018-11-05T15:29:04.072Z,67.25
2018-11-05T15:31:59.728Z,63.33
2018-11-05T15:34:56.063Z,63.78
2018-11-05T15:37:51.718Z,63.85
2018-11-05T15:40:46.596Z,71.37
2018-11-05T15:43:42.193Z,70.43
2018-11-05T15:46:37.911Z,75.03
2018-11-05T15:49:33.829Z,66.28
2018-11-05T15:52:29.428Z,69.47
2018-11-05T15:55:24.669Z,67.20
2018-11-05T15:58:22.969Z,61.68
2018-11-05T16:01:21.437Z,69.20
2018-11-05T16:04:17.512Z,89.45
2018-11-05T16:07:13.008Z,85.03
2018-11-05T16:10:08.459Z,102.55
2018-11-05T16:13:04.125Z,78.02
2018-11-05T16:16:00.139Z,87.43
2018-11-05T16:18:55.648Z,88.10
2018-11-05T16:21:51.679Z,90.47
2018-11-05T16:24:46.604Z,84.83
2018-11-05T16:27:42.371Z,78.90
2018-11-05T16:30:37.568Z,86.02
2018-11-05T16:33:33.126Z,83.07
2018-11-05T16:36:28.605Z,81.15
2018-11-05T16:39:23.821Z,74.97
2018-11-05T16:42:19.024Z,101.67
2018-11-05T16:45:14.464Z,90.50
2018-11-05T16:48:09.984Z,92.57
2018-11-05T16:51:05.185Z,91.12
2018-11-05T16:54:04.020Z,85.60
2018-11-05T16:57:02.176Z,83.40
2018-11-05T16:59:57.571Z,87.27
2018-11-05T17:02:54.065Z,80.50
2018-11-05T17:05:49.909Z,88.87
2018-11-05T17:08:50.232Z,84.07
2018-11-05T17:11:45.978Z,79.82
2018-11-05T17:14:42.692Z,85.22
2018-11-05T17:17:38.820Z,85.72
2018-11-05T17:20:43.204Z,85.90
2018-11-05T17:23:31.186Z,78.35
2018-11-05T17:26:28.776Z,86.77
2018-11-05T17:29:24.382Z,74.27
2018-11-05T17:32:20.829Z,76.97
2018-11-05T17:35:17.708Z,77.45
2018-11-05T17:38:15.969Z,69.60
2018-11-05T17:41:15.161Z,83.43
2018-11-05T17:44:11.712Z,69.95
2018-11-05T17:47:07.697Z,76.25
2018-11-05T17:50:03.128Z,79.20
2018-11-05T17:52:58.932Z,76.90
2018-11-05T17:55:54.300Z,68.90
2018-11-05T17:58:50.314Z,82.88
2018-11-05T18:01:46.032Z,72.37
2018-11-05T18:04:41.941Z,71.02
2018-11-05T18:07:37.346Z,70.25
2018-11-05T18:10:33.493Z,71.10
2018-11-05T18:13:29.156Z,92.83
2018-11-05T18:16:24.671Z,85.20
2018-11-05T18:19:20.538Z,74.23
2018-11-05T18:22:17.174Z,82.03
2018-11-05T18:25:15.211Z,77.47
2018-11-05T18:28:11.087Z,78.22
2018-11-05T18:31:09.647Z,79.15
2018-11-05T18:34:05.256Z,77.37
2018-11-05T18:37:00.900Z,75.97
2018-11-05T18:39:56.979Z,81.60
2018-11-05T18:42:52.124Z,73.75
2018-11-05T18:45:47.482Z,84.83
2018-11-05T18:48:42.149Z,75.33
2018-11-05T18:51:37.359Z,76.73
2018-11-05T18:54:32.708Z,81.47
2018-11-05T18:57:27.884Z,74.10
2018-11-05T19:00:25.880Z,72.43
2018-11-05T19:03:21.392Z,71.67
2018-11-05T19:06:17.023Z,67.87
2018-11-05T19:09:12.962Z,76.20
2018-11-05T19:12:08.272Z,67.07
2018-11-05T19:15:03.428Z,73.63
2018-11-05T19:17:58.201Z,66.45
2018-11-05T19:20:53.929Z,70.92
2018-11-05T19:23:52.613Z,63.20
2018-11-05T19:26:50.075Z,64.85
2018-11-05T19:29:45.277Z,72.57
2018-11-05T19:32:40.703Z,64.47
2018-11-05T19:35:35.644Z,73.63
2018-11-05T19:38:31.284Z,60.45
2018-11-05T19:41:28.942Z,67.95
2018-11-05T19:44:21.198Z,67.15
2018-11-05T19:47:16.623Z,62.73
2018-11-05T19:50:14.608Z,75.83
2018-11-05T19:53:10.226Z,65.55
2018-11-05T19:56:05.655Z,62.20
2018-11-05T19:59:00.878Z,68.83
2018-11-05T20:01:56.395Z,62.43
2018-11-05T20:04:51.466Z,61.77
2018-11-05T20:07:47.027Z,59.03
2018-11-05T20:10:45.311Z,59.55
2018-11-05T20:13:40.538Z,60.92
2018-11-05T20:16:36.830Z,64.42
2018-11-05T20:19:34.706Z,66.60
2018-11-05T20:22:29.632Z,60.63
2018-11-05T20:25:25.458Z,63.97
2018-11-05T20:28:21.336Z,56.73
2018-11-05T20:31:16.515Z,65.67
2018-11-05T20:34:12.333Z,63.50
2018-11-05T20:37:07.160Z,60.53
2018-11-05T20:40:03.185Z,59.23
2018-11-05T20:42:58.224Z,63.47
2018-11-05T20:45:53.540Z,59.97
2018-11-05T20:48:49.421Z,60.10
2018-11-05T20:51:45.042Z,63.73
2018-11-05T20:54:39.850Z,58.00
2018-11-05T20:57:34.316Z,62.33
2018-11-05T21:00:27.804Z,63.85
2018-11-05T21:03:23.368Z,60.33
2018-11-05T21:06:18.796Z,66.92
2018-11-05T21:09:15.716Z,63.40
2018-11-05T21:12:10.694Z,64.92
2018-11-05T21:15:06.243Z,66.13
2018-11-05T21:18:01.622Z,55.67
2018-11-05T21:20:57.821Z,59.38
2018-11-05T21:23:53.462Z,58.17
2018-11-05T21:26:49.354Z,58.25
2018-11-05T21:29:44.329Z,57.23
2018-11-05T21:32:42.267Z,61.02
2018-11-05T21:35:37.423Z,62.80
2018-11-05T21:38:32.587Z,61.75
2018-11-05T21:41:27.297Z,59.65
2018-11-05T21:44:22.471Z,60.13
2018-11-05T21:47:17.842Z,57.00
2018-11-05T21:50:14.812Z,58.97
2018-11-05T21:53:09.406Z,58.98
2018-11-05T21:56:02.924Z,59.07
2018-11-05T21:58:57.584Z,58.13
2018-11-05T22:01:53.614Z,54.90
2018-11-05T22:04:48.762Z,54.88
2018-11-05T22:07:44.733Z,56.60
2018-11-05T22:10:40.373Z,59.70
2018-11-05T22:13:36.036Z,55.65
2018-11-05T22:16:32.287Z,60.85
2018-11-05T22:19:27.644Z,61.00
2018-11-05T22:22:23.636Z,58.00
2018-11-05T22:25:19.414Z,56.80
2018-11-05T22:28:15.396Z,54.90
2018-11-05T22:31:11.071Z,72.78
2018-11-05T22:34:07.131Z,63.07
2018-11-05T22:37:02.966Z,61.43
2018-11-05T22:39:58.744Z,58.43
2018-11-05T22:42:54.440Z,60.87
2018-11-05T22:45:50.143Z,63.27
2018-11-05T22:48:45.602Z,52.73
2018-11-05T22:51:40.807Z,59.50
2018-11-05T22:54:36.317Z,60.07
2018-11-05T22:57:32.032Z,54.33
2018-11-05T23:00:43.888Z,60.23
2018-11-05T23:03:39.625Z,61.97
2018-11-05T23:06:36.914Z,57.13
2018-11-05T23:09:32.621Z,59.77
2018-11-05T23:12:27.853Z,51.95
2018-11-05T23:15:23.839Z,56.48
2018-11-05T23:18:19.541Z,56.30
2018-11-05T23:21:14.914Z,56.50
2018-11-05T23:24:11.209Z,64.30
2018-11-05T23:27:06.179Z,59.83
2018-11-05T23:30:00.827Z,59.77
2018-11-05T23:32:55.307Z,59.90
2018-11-05T23:35:49.069Z,58.92
2018-11-05T23:38:42.746Z,56.47
2018-11-05T23:41:36.431Z,56.50
2018-11-05T23:44:29.984Z,57.67
2018-11-05T23:47:23.479Z,61.63
2018-11-05T23:50:17.349Z,53.38
2018-11-05T23:53:11.775Z,60.23
2018-11-05T23:56:05.734Z,56.97
2018-11-05T23:59:02.593Z,59.15
